• Join FlightAware (Why Join?)
  • Login
  • US Flag 
02:08AM EDT


 

Airport Tracker/Info


-or-


 

Live Flight TrackerFlight Track Log ✈ EJA922 ✈ 06-Aug-2013 ✈ KLIT - KDFW

Flight Track Log - Related Links

Times and Time Zones

All times are in EDT time to prevent confusion due to time zone crossing. See the EJA922 flight status page for this flight to view local times or setup timezone preferences in your user account.

Time Position Orientation Groundspeed Altitude Reporting Facility
EDT Latitude Longitude Course Direction KTS MPH feet Rate Location/Type
01:55PM 34.6697 -92.2561 191° South 213 245 3,900  Level Memphis Center
01:56PM 34.6372 -92.3261 241° Southwest 257 296 4,000 180 Climbing Memphis Center
01:57PM 34.6256 -92.3989 259° West 261 300 4,300 1,500 Climbing Memphis Center
01:58PM 34.6200 -92.4819 265° West 262 302 6,800 2,880 Climbing Memphis Center
01:59PM 34.6103 -92.5678 262° West 297 342 10,000 2,580 Climbing Memphis Center
02:00PM 34.6000 -92.6708 263° West 316 364 12,000 2,040 Climbing Memphis Center
02:01PM 34.5708 -92.7836 253° West 330 380 14,100 2,100 Climbing Memphis Center
02:02PM 34.5308 -92.8958 247° West 349 402 16,200 2,040 Climbing Memphis Center
02:03PM 34.4931 -93.0131 249° West 365 420 18,200 1,800 Climbing Memphis Center
02:04PM 34.4508 -93.1328 247° West 379 436 19,800 1,500 Climbing Memphis Center
02:05PM 34.4083 -93.2572 248° West 390 449 21,200 1,500 Climbing Memphis Center
02:06PM 34.3658 -93.3792 247° West 395 455 22,900 1,800 Climbing Memphis Center
02:07PM 34.3231 -93.5058 248° West 401 461 24,800 1,500 Climbing Memphis Center
02:08PM 34.2819 -93.6586 252° West 388 447 26,000 540 Climbing Fort Worth Center
02:09PM 34.2444 -93.7958 252° West 417 480 26,000  Level Fort Worth Center
02:10PM 34.2047 -93.9431 252° West 446 513 26,000  Level Fort Worth Center
02:11PM 34.1628 -94.0903 251° West 458 527 26,000  Level Fort Worth Center
02:12PM 34.1292 -94.2372 255° West 458 527 26,000  Level Fort Worth Center
02:13PM 34.1533 -94.3792 282° West 435 501 26,000  Level Fort Worth Center
02:14PM 34.1836 -94.5114 286° West 430 495 26,000  Level Fort Worth Center
02:15PM 34.2094 -94.6361 284° West 410 472 26,000  Level Fort Worth Center
02:16PM 34.2353 -94.7658 284° West 399 459 26,000  Level Fort Worth Center
02:17PM 34.2464 -94.8986 276° West 399 459 26,000  Level Fort Worth Center
02:18PM 34.1922 -95.0206 242° Southwest 378 435 26,000  Level Fort Worth Center
02:19PM 34.1297 -95.1353 237° Southwest 390 449 26,000  Level Fort Worth Center
02:20PM 34.0669 -95.2472 236° Southwest 402 463 26,000  Level Fort Worth Center
02:21PM 34.0083 -95.3614 238° Southwest 408 470 26,000  Level Fort Worth Center
02:22PM 33.9478 -95.4756 237° Southwest 413 475 26,000  Level Fort Worth Center
02:23PM 33.9008 -95.5617 237° Southwest 413 475 26,000 -480 Level Fort Worth Center
02:24PM 33.8278 -95.6983 237° Southwest 413 475 25,100 -1,620 Descending Fort Worth Center
02:25PM 33.7647 -95.8194 238° Southwest 419 482 22,800 -2,220 Descending Fort Worth Center
02:26PM 33.7075 -95.9203 236° Southwest 418 481 20,700 -2,220 Descending Fort Worth Center
02:27PM 33.6422 -96.0461 238° Southwest 418 481 18,400 -2,160 Descending Fort Worth Center
02:28PM 33.5889 -96.1442 237° Southwest 413 475 16,400 -2,100 Descending Fort Worth Center
02:29PM 33.5169 -96.2600 233° Southwest 408 470 14,300 -1,920 Descending Fort Worth Center
02:30PM 33.4592 -96.3278 224° Southwest 357 411 12,600 -1,680 Descending Fort Worth Center
02:31PM 33.3908 -96.4108 225° Southwest 317 365 11,000 -1,200 Descending Fort Worth Center
02:32PM 33.3500 -96.4500 219° Southwest 272 313 10,700 -1,200 Descending Dallas / Fort Worth TRACON
02:33PM 33.3167 -96.5333 244° Southwest 280 322 9,000 -1,560 Descending Dallas / Fort Worth TRACON
02:34PM 33.2667 -96.6000 228° Southwest 281 323 7,600 -1,260 Descending Dallas / Fort Worth TRACON
02:35PM 33.2167 -96.6833 234° Southwest 283 326 6,500 -960 Descending Dallas / Fort Worth TRACON
02:36PM 33.1833 -96.7667 244° Southwest 271 312 5,600 -780 Descending Dallas / Fort Worth TRACON
02:37PM 33.1333 -96.8500 234° Southwest 264 304 4,900 -900 Descending Dallas / Fort Worth TRACON
02:38PM 33.1000 -96.9000 231° Southwest 259 298 3,900 -1,080 Descending Dallas / Fort Worth TRACON
02:39PM 33.0667 -96.9667 239° Southwest 202 232 2,900 -540 Descending Dallas / Fort Worth TRACON
02:40PM 33.0333 -97.0000 220° Southwest 174 200 2,900 -420 Level Dallas / Fort Worth TRACON
02:41PM 32.9833 -97.0000 180° South 175 201 2,200 -780 Descending Dallas / Fort Worth TRACON
02:42PM 32.9333 -97.0000 180° South 161 185 1,300 -840 Descending Dallas / Fort Worth TRACON
02:45PM 32.8968 -97.0380 232° Southwest  Level Estimated